Time;durP1;ratioP1;P1;durP2;ratioP2;P2;SDS_P1;SDS_P2;PMS_P1;PMS_P2;Temp;Humidity;BMP_temperature;BMP_pressure;BME280_temperature;BME280_humidity;BME280_pressure;Samples;Min_cycle;Max_cycle;Signal;HPM_P1;HPM_P2
2022/01/03 00:02:20;;;;;;;1.05;1.05;;;;;;;-12.76;89.80;99944.63;5031673;28;20088;-77
2022/01/03 00:04:47;;;;;;;2.05;1.27;;;;;;;-12.75;89.71;99934.63;5031843;28;20488;-74
2022/01/03 00:07:16;;;;;;;1.08;1.08;;;;;;;-12.64;89.30;99937.38;5031692;28;20054;-76
2022/01/03 00:09:43;;;;;;;1.20;1.20;;;;;;;-12.66;89.22;99940.66;5031878;28;20111;-77
2022/01/03 00:12:11;;;;;;;;;;;;;;;-12.66;88.88;99935.66;5031979;28;20476;-76
2022/01/03 00:14:41;;;;;;;1.60;1.50;;;;;;;-12.65;88.99;99928.19;5031700;28;20390;-75
2022/01/03 00:17:08;;;;;;;1.05;1.05;;;;;;;-12.74;89.60;99935.47;5035344;28;20484;-74
2022/01/03 00:19:35;;;;;;;1.38;1.10;;;;;;;-12.84;89.52;99934.41;5035193;28;20484;-76
2022/01/03 00:22:07;;;;;;;1.58;1.48;;;;;;;-12.89;89.72;99938.44;5035468;28;20057;-74
2022/01/03 00:24:35;;;;;;;1.25;1.20;;;;;;;-12.83;90.13;99925.22;5035448;28;20048;-76
2022/01/03 00:27:05;;;;;;;1.45;1.33;;;;;;;-12.74;89.94;99918.78;5035270;28;20045;-74
2022/01/03 00:29:44;;;;;;;1.23;1.20;;;;;;;-12.88;89.87;99917.56;5035362;28;20041;-77
2022/01/03 00:32:12;;;;;;;3.10;1.40;;;;;;;-13.00;90.26;99913.09;5035386;28;20052;-76
2022/01/03 00:34:40;;;;;;;1.25;1.20;;;;;;;-12.85;90.11;99902.63;5035102;28;20487;-76
2022/01/03 00:37:08;;;;;;;2.00;1.80;;;;;;;-12.86;89.83;99912.63;5035213;28;20514;-76
2022/01/03 00:39:37;;;;;;;1.00;1.00;;;;;;;-12.83;90.02;99912.69;5035386;28;20050;-76
2022/01/03 00:42:04;;;;;;;1.30;1.20;;;;;;;-12.76;89.79;99907.03;5035069;28;20096;-73
2022/01/03 00:44:32;;;;;;;1.50;1.40;;;;;;;-12.85;89.90;99921.81;5034976;28;20510;-73
2022/01/03 00:47:00;;;;;;;1.10;1.10;;;;;;;-12.74;89.16;99910.41;5034801;28;20052;-77
2022/01/03 00:49:27;;;;;;;2.17;1.50;;;;;;;-12.79;89.39;99922.84;5034789;28;20049;-77
2022/01/03 00:51:54;;;;;;;1.52;1.42;;;;;;;-12.86;89.58;99922.63;5034682;28;20046;-77
2022/01/03 00:54:21;;;;;;;2.30;1.77;;;;;;;-12.80;89.27;99920.28;5034786;28;20506;-76
2022/01/03 00:56:54;;;;;;;1.77;1.65;;;;;;;-12.81;89.77;99923.59;5034494;28;20431;-76
2022/01/03 00:59:25;;;;;;;1.48;1.38;;;;;;;-12.76;89.27;99912.88;5034648;28;20049;-77
2022/01/03 01:01:54;;;;;;;1.60;1.50;;;;;;;-12.82;89.82;99925.25;5034548;28;20395;-76
2022/01/03 01:04:23;;;;;;;1.17;1.10;;;;;;;-12.81;89.53;99921.94;5034729;28;20049;-76
2022/01/03 01:06:53;;;;;;;6.07;1.55;;;;;;;-12.81;89.62;99916.94;5034581;28;20049;-77
2022/01/03 01:09:21;;;;;;;1.00;1.00;;;;;;;-12.88;89.59;99914.22;5034523;28;20052;-76
2022/01/03 01:11:52;;;;;;;1.42;1.30;;;;;;;-12.80;89.62;99911.09;5034232;28;20049;-77
2022/01/03 01:14:19;;;;;;;2.20;1.42;;;;;;;-12.82;89.68;99904.34;5034222;28;20527;-75
2022/01/03 01:16:46;;;;;;;1.00;1.00;;;;;;;-12.95;89.95;99905.69;5034216;28;20049;-76
2022/01/03 01:19:14;;;;;;;1.27;1.17;;;;;;;-12.80;89.44;99906.09;5034297;28;20042;-75
2022/01/03 01:21:43;;;;;;;2.33;1.30;;;;;;;-12.81;89.46;99916.94;5034260;28;20049;-76
2022/01/03 01:24:10;;;;;;;1.40;1.30;;;;;;;-12.83;89.50;99905.19;5034184;28;20045;-75
2022/01/03 01:29:21;;;;;;;1.15;1.08;;;;;;;-12.96;89.59;99896.50;5034202;28;20550;-76
2022/01/03 01:31:49;;;;;;;1.45;1.35;;;;;;;-12.95;89.58;99905.69;5034151;28;20050;-75
2022/01/03 01:34:22;;;;;;;1.30;1.20;;;;;;;-13.05;89.88;99892.09;5033797;28;20049;-77
2022/01/03 01:36:52;;;;;;;1.70;1.30;;;;;;;-12.96;89.59;99897.34;5033690;28;20484;-76
2022/01/03 01:42:05;;;;;;;1.10;1.10;;;;;;;-12.95;89.37;99894.03;5051125;28;20052;-69
2022/01/03 01:44:35;;;;;;;1.52;1.42;;;;;;;-13.02;89.82;99897.19;5053817;28;20056;-69
2022/01/03 01:47:05;;;;;;;1.25;1.25;;;;;;;-13.04;89.46;99901.31;5053739;28;20069;-69
2022/01/03 01:49:39;;;;;;;1.15;1.10;;;;;;;-13.12;89.73;99892.75;5054043;28;20053;-68
2022/01/03 01:52:15;;;;;;;1.00;1.00;;;;;;;-13.11;89.63;99898.59;5053682;28;20788;-69
2022/01/03 01:54:56;;;;;;;1.20;1.20;;;;;;;-13.14;89.89;99889.34;5054042;28;20467;-69
2022/01/03 01:57:39;;;;;;;1.80;1.33;;;;;;;-13.09;89.39;99887.81;5053593;28;20408;-69
2022/01/03 02:00:09;;;;;;;2.38;1.60;;;;;;;-13.29;89.88;99888.97;5053784;28;20044;-67
2022/01/03 02:02:37;;;;;;;2.08;1.35;;;;;;;-13.22;90.21;99883.31;5053714;28;20503;-69
2022/01/03 02:05:17;;;;;;;1.40;1.30;;;;;;;-13.22;90.06;99888.31;5053900;28;20051;-70
2022/01/03 02:08:05;;;;;;;1.02;0.98;;;;;;;-13.15;89.53;99880.16;5053602;28;20510;-68
2022/01/03 02:10:38;;;;;;;2.70;1.73;;;;;;;-13.18;89.68;99875.03;5053380;28;20056;-70
2022/01/03 02:13:06;;;;;;;1.30;1.20;;;;;;;-13.05;89.39;99872.06;5053988;28;20103;-70
2022/01/03 02:15:34;;;;;;;1.13;1.10;;;;;;;-13.05;89.00;99864.53;5053687;28;20052;-70
2022/01/03 02:18:01;;;;;;;1.40;1.27;;;;;;;-13.19;89.79;99864.19;5053498;28;20048;-70
2022/01/03 02:20:31;;;;;;;;;;;;;;;-13.19;89.74;99860.84;5053674;28;20051;-70
2022/01/03 02:22:58;;;;;;;1.60;1.50;;;;;;;-13.19;89.66;99864.19;5052958;28;19921;-68
2022/01/03 02:25:26;;;;;;;1.67;1.27;;;;;;;-13.12;89.62;99860.22;5052610;28;20045;-70
2022/01/03 02:27:54;;;;;;;1.10;1.10;;;;;;;-13.04;89.40;99856.22;5052861;28;20041;-69
2022/01/03 02:30:24;;;;;;;1.30;1.20;;;;;;;-13.06;89.44;99862.84;5052665;28;20045;-69
2022/01/03 02:32:52;;;;;;;2.00;1.38;;;;;;;-13.13;89.21;99858.50;5052796;28;20060;-69
2022/01/03 02:35:19;;;;;;;1.52;1.42;;;;;;;-13.12;89.78;99850.19;5053011;28;20057;-67
2022/01/03 02:37:49;;;;;;;1.40;1.40;;;;;;;-13.00;89.33;99849.63;5053040;28;20045;-68
2022/01/03 02:40:17;;;;;;;1.35;1.25;;;;;;;-13.14;89.84;99855.97;5053042;28;20049;-68
2022/01/03 02:42:44;;;;;;;1.23;1.23;;;;;;;-13.12;89.54;99851.84;5052726;28;20045;-69
2022/01/03 02:45:14;;;;;;;1.25;1.17;;;;;;;-13.03;89.15;99854.56;5052661;28;20052;-70
2022/01/03 02:47:45;;;;;;;4.50;1.50;;;;;;;-13.00;89.12;99857.16;5052497;28;20048;-69
2022/01/03 02:50:12;;;;;;;1.42;1.33;;;;;;;-12.86;89.13;99847.50;5052589;28;20077;-70
2022/01/03 02:52:39;;;;;;;1.50;1.40;;;;;;;-13.05;89.38;99853.69;5052782;28;20490;-69
2022/01/03 02:55:09;;;;;;;1.90;1.67;;;;;;;-13.05;89.01;99863.69;5052529;28;20049;-70
2022/01/03 02:57:38;;;;;;;1.48;1.38;;;;;;;-12.98;89.24;99861.38;5052431;28;20045;-68
2022/01/03 03:00:07;;;;;;;1.10;1.10;;;;;;;-13.05;89.60;99854.53;5052148;28;20510;-69
2022/01/03 03:02:35;;;;;;;1.90;1.38;;;;;;;-12.88;89.25;99854.13;5052221;28;20041;-69
2022/01/03 03:05:02;;;;;;;;;;;;;;;-12.84;89.02;99863.38;5052922;28;20049;-69
2022/01/03 03:07:31;;;;;;;1.27;1.17;;;;;;;-13.00;89.68;99862.16;5052185;28;20389;-69
2022/01/03 03:09:59;;;;;;;2.58;1.58;;;;;;;-13.07;90.31;99873.69;5052429;28;20052;-69
2022/01/03 03:12:29;;;;;;;5.13;1.40;;;;;;;-12.95;89.82;99873.13;5052300;28;20041;-69
2022/01/03 03:14:56;;;;;;;1.42;1.33;;;;;;;-12.84;90.25;99875.91;5052345;28;20045;-69
2022/01/03 03:17:23;;;;;;;1.10;1.00;;;;;;;-12.65;89.65;99882.25;5052020;28;20053;-68
2022/01/03 03:19:57;;;;;;;1.50;1.40;;;;;;;-12.71;89.34;99877.94;5052195;28;20049;-69
2022/01/03 03:22:25;;;;;;;2.25;1.73;;;;;;;-12.71;89.15;99875.44;5051947;28;20049;-69
2022/01/03 03:24:59;;;;;;;2.60;1.40;;;;;;;-12.68;89.23;99870.47;5051824;28;20474;-68
2022/01/03 03:27:27;;;;;;;1.55;1.45;;;;;;;-12.74;89.18;99871.19;5052020;28;20403;-70
2022/01/03 03:29:54;;;;;;;1.48;1.38;;;;;;;-12.64;90.10;99867.22;5051868;28;20041;-69
2022/01/03 03:32:21;;;;;;;1.30;1.20;;;;;;;-12.61;89.72;99859.81;5052148;28;20496;-69
2022/01/03 03:34:49;;;;;;;1.50;1.40;;;;;;;-12.56;88.90;99853.25;5052269;28;20053;-69
2022/01/03 03:37:17;;;;;;;2.15;1.98;;;;;;;-12.62;89.52;99849.72;5051808;28;20491;-69
2022/01/03 03:39:44;;;;;;;1.85;1.50;;;;;;;-12.64;89.55;99842.16;5052300;28;20064;-69
2022/01/03 03:42:12;;;;;;;;;;;;;;;-12.62;90.54;99847.22;5052103;28;20057;-68
2022/01/03 03:44:40;;;;;;;2.42;1.52;;;;;;;-12.60;89.45;99843.94;5052046;28;19925;-69
2022/01/03 03:47:08;;;;;;;1.38;1.27;;;;;;;-12.59;89.56;99837.28;5052105;28;20052;-69
2022/01/03 03:49:36;;;;;;;1.30;1.25;;;;;;;-12.61;90.02;99834.75;5051715;28;20045;-69
2022/01/03 03:52:04;;;;;;;1.55;1.40;;;;;;;-12.60;89.78;99833.09;5055739;28;20403;-69
2022/01/03 03:54:33;;;;;;;1.90;1.80;;;;;;;-12.63;89.93;99830.50;5055774;28;20487;-69
2022/01/03 03:57:01;;;;;;;4.93;2.10;;;;;;;-12.64;90.18;99819.63;5056025;28;20056;-69
2022/01/03 03:59:28;;;;;;;1.20;1.20;;;;;;;-12.48;90.30;99823.34;5055768;28;20461;-69
2022/01/03 04:01:57;;;;;;;2.00;1.50;;;;;;;-12.46;89.28;99821.69;5055735;28;20041;-70
2022/01/03 04:04:24;;;;;;;1.88;1.48;;;;;;;-12.49;90.20;99824.13;5055700;28;20450;-65
2022/01/03 04:06:51;;;;;;;2.58;1.67;;;;;;;-12.44;89.52;99824.25;5055631;28;20049;-69
2022/01/03 04:09:18;;;;;;;1.50;1.40;;;;;;;-12.48;89.47;99819.97;5055442;28;20053;-69
2022/01/03 04:11:45;;;;;;;2.00;1.20;;;;;;;-12.39;89.46;99826.03;5055279;28;20056;-68
2022/01/03 04:14:12;;;;;;;2.47;1.67;;;;;;;-12.52;90.35;99822.41;5055671;28;20041;-70
2022/01/03 04:16:39;;;;;;;1.40;1.30;;;;;;;-12.59;90.48;99819.72;5055531;28;20056;-69
2022/01/03 04:19:07;;;;;;;;;;;;;;;-12.40;89.85;99818.50;5055679;28;20041;-69
2022/01/03 04:21:36;;;;;;;6.30;1.95;;;;;;;-12.45;89.75;99822.56;5055261;28;20371;-69
2022/01/03 04:24:04;;;;;;;1.60;1.50;;;;;;;-12.40;89.39;99821.00;5055664;28;20106;-69
2022/01/03 04:26:31;;;;;;;4.65;1.70;;;;;;;-12.56;90.26;99814.78;5055560;28;20052;-69
2022/01/03 04:28:58;;;;;;;1.40;1.30;;;;;;;-12.48;90.54;99814.97;5055405;28;20048;-69
2022/01/03 04:31:24;;;;;;;;;;;;;;;-12.46;89.88;99810.84;5055769;28;20045;-69
2022/01/03 04:33:51;;;;;;;2.15;1.48;;;;;;;-12.37;89.92;99809.38;5055260;28;19920;-68
2022/01/03 04:36:20;;;;;;;1.85;1.15;;;;;;;-12.33;89.61;99813.66;5055138;28;20053;-69
2022/01/03 04:38:48;;;;;;;1.83;1.63;;;;;;;-12.41;89.94;99814.28;5055068;28;20073;-69
2022/01/03 04:41:15;;;;;;;1.00;0.95;;;;;;;-12.36;89.94;99813.56;5055454;28;20053;-66
2022/01/03 04:43:42;;;;;;;2.83;1.58;;;;;;;-12.39;89.62;99810.16;5054880;28;20040;-69
2022/01/03 04:46:09;;;;;;;1.27;1.17;;;;;;;-12.32;90.38;99812.84;5054834;28;20051;-69
2022/01/03 04:48:36;;;;;;;;;;;;;;;-12.46;90.71;99813.34;5055263;28;20126;-68
2022/01/03 04:51:03;;;;;;;1.25;1.20;;;;;;;-12.48;91.06;99810.81;5054712;28;20292;-69
2022/01/03 04:53:31;;;;;;;5.70;1.52;;;;;;;-12.39;90.33;99815.19;5054851;28;20060;-69
2022/01/03 04:55:58;;;;;;;1.52;1.42;;;;;;;-12.47;90.89;99810.00;5054674;28;20044;-67
2022/01/03 04:58:24;;;;;;;;;;;;;;;-12.46;90.76;99815.84;5055299;28;20487;-69
2022/01/03 05:00:52;;;;;;;1.42;1.33;;;;;;;-12.34;90.50;99806.09;5053970;28;20314;-70
2022/01/03 05:03:19;;;;;;;1.50;1.40;;;;;;;-12.48;90.35;99812.44;5053892;28;20049;-66
2022/01/03 05:05:46;;;;;;;1.50;1.40;;;;;;;-12.43;90.29;99805.88;5054544;28;20053;-66
2022/01/03 05:08:12;;;;;;;1.58;1.48;;;;;;;-12.36;90.10;99808.56;5054620;28;20524;-65
2022/01/03 05:10:41;;;;;;;1.90;1.73;;;;;;;-12.42;90.71;99807.59;5054380;28;20507;-67
2022/01/03 05:13:07;;;;;;;7.05;2.33;;;;;;;-12.30;90.64;99805.38;5054272;28;20041;-64
2022/01/03 05:15:34;;;;;;;2.55;1.60;;;;;;;-12.52;91.39;99799.00;5054285;28;20045;-65
2022/01/03 05:18:01;;;;;;;3.70;1.85;;;;;;;-12.41;90.93;99796.75;5054160;28;20053;-68
2022/01/03 05:20:28;;;;;;;2.10;1.52;;;;;;;-12.34;90.32;99791.91;5054608;28;20053;-65
2022/01/03 05:22:55;;;;;;;2.38;1.85;;;;;;;-12.24;89.93;99794.63;5054369;28;20049;-69
2022/01/03 05:25:22;;;;;;;2.40;1.80;;;;;;;-12.25;89.86;99795.41;5054031;28;20051;-68
2022/01/03 05:27:50;;;;;;;;;;;;;;;-12.36;90.66;99795.19;5054473;28;20057;-68
2022/01/03 05:30:18;;;;;;;1.65;1.55;;;;;;;-12.26;90.89;99791.22;5054045;28;20351;-68
2022/01/03 05:32:45;;;;;;;1.10;1.05;;;;;;;-12.18;90.14;99788.03;5054193;28;20045;-70
2022/01/03 05:35:12;;;;;;;2.78;1.27;;;;;;;-12.30;90.21;99795.34;5053787;28;20044;-70
2022/01/03 05:37:39;;;;;;;;;;;;;;;-12.29;90.34;99794.50;5054063;28;20056;-70
2022/01/03 05:40:07;;;;;;;2.17;1.77;;;;;;;-12.20;90.08;99786.31;5063850;22;19909;-75
2022/01/03 05:42:34;;;;;;;2.40;1.73;;;;;;;-12.27;89.88;99790.38;5033581;28;20046;-76
2022/01/03 05:45:04;;;;;;;2.03;1.85;;;;;;;-12.32;90.73;99780.25;5033792;28;20049;-75
2022/01/03 05:47:31;;;;;;;1.92;1.50;;;;;;;-12.19;90.08;99780.50;5033562;28;20088;-76
2022/01/03 05:49:59;;;;;;;1.42;1.33;;;;;;;-12.23;89.75;99786.25;5033392;28;20380;-76
2022/01/03 05:52:26;;;;;;;3.47;2.78;;;;;;;-12.32;90.38;99790.28;5033385;28;20507;-77
2022/01/03 05:54:54;;;;;;;1.65;1.55;;;;;;;-12.27;90.45;99785.38;5033395;28;20484;-77
2022/01/03 05:57:21;;;;;;;2.08;1.52;;;;;;;-12.22;90.15;99786.31;5033152;28;20485;-76
2022/01/03 05:59:47;;;;;;;2.65;1.88;;;;;;;-12.37;90.68;99791.84;5033343;28;20049;-76
2022/01/03 06:02:16;;;;;;;1.95;1.52;;;;;;;-12.43;90.99;99784.19;5033348;28;20057;-77
2022/01/03 06:04:54;;;;;;;1.17;1.17;;;;;;;-12.24;90.53;99787.94;5033601;28;20060;-77
2022/01/03 06:07:22;;;;;;;1.48;1.38;;;;;;;-12.32;90.59;99780.25;5033391;28;20053;-76
2022/01/03 06:09:50;;;;;;;1.58;1.42;;;;;;;-12.31;90.52;99781.09;5032966;28;20098;-77
2022/01/03 06:12:17;;;;;;;2.03;1.80;;;;;;;-12.30;90.50;99781.13;5033319;28;20050;-76
2022/01/03 06:14:45;;;;;;;2.67;2.17;;;;;;;-12.26;90.48;99778.69;5032980;28;20049;-77
2022/01/03 06:17:12;;;;;;;1.63;1.52;;;;;;;-12.28;90.62;99781.16;5033237;28;20061;-77
2022/01/03 06:19:41;;;;;;;2.22;1.80;;;;;;;-12.33;91.43;99778.56;5032884;28;20041;-76
2022/01/03 06:22:11;;;;;;;3.03;2.03;;;;;;;-12.41;91.03;99782.53;5032847;28;20046;-76
2022/01/03 06:24:39;;;;;;;2.20;1.98;;;;;;;-12.38;91.17;99780.13;5032931;28;20073;-77
2022/01/03 06:27:07;;;;;;;3.80;2.53;;;;;;;-12.22;90.28;99780.47;5033072;28;20049;-77
2022/01/03 06:29:34;;;;;;;3.15;1.70;;;;;;;-12.18;90.40;99779.69;5033017;28;20049;-77
2022/01/03 06:32:01;;;;;;;1.73;1.63;;;;;;;-12.17;90.53;99786.41;5032906;28;20440;-76
2022/01/03 06:34:28;;;;;;;4.15;1.80;;;;;;;-12.22;90.77;99787.97;5032791;28;20052;-76
2022/01/03 06:36:56;;;;;;;1.77;1.67;;;;;;;-12.19;90.45;99785.53;5032515;28;20056;-76
2022/01/03 06:39:23;;;;;;;3.67;2.22;;;;;;;-12.21;90.56;99777.97;5032935;28;20045;-76
2022/01/03 06:41:50;;;;;;;2.22;2.00;;;;;;;-12.20;90.49;99783.81;5045050;22;20049;-69
2022/01/03 06:44:17;;;;;;;2.67;2.03;;;;;;;-12.24;90.94;99782.91;5032617;28;20045;-69
2022/01/03 06:46:43;;;;;;;3.85;1.75;;;;;;;-12.18;91.22;99787.22;5032512;28;20076;-69
2022/01/03 06:49:10;;;;;;;3.10;2.15;;;;;;;-12.15;90.96;99783.13;5032500;28;20415;-70
2022/01/03 06:51:37;;;;;;;2.85;2.53;;;;;;;-12.14;90.31;99788.97;5032629;28;20045;-69
2022/01/03 06:54:10;;;;;;;1.88;1.52;;;;;;;-12.24;90.65;99780.41;5032970;28;20052;-69
2022/01/03 06:56:37;;;;;;;2.17;1.50;;;;;;;-12.19;91.07;99791.38;5032728;28;20065;-65
2022/01/03 06:59:04;;;;;;;3.25;2.10;;;;;;;-12.15;91.01;99792.28;5032457;28;20041;-66
2022/01/03 07:01:31;;;;;;;4.50;2.15;;;;;;;-12.18;90.84;99794.72;5032377;28;20045;-65
2022/01/03 07:03:58;;;;;;;3.55;1.92;;;;;;;-12.19;91.26;99790.53;5032287;28;20415;-66
2022/01/03 07:06:25;;;;;;;4.80;1.77;;;;;;;-12.24;91.49;99800.47;5032649;28;20256;-69
2022/01/03 07:08:52;;;;;;;5.43;2.45;;;;;;;-12.20;91.41;99792.22;5032839;28;20053;-70
2022/01/03 07:11:21;;;;;;;3.10;2.38;;;;;;;-12.11;91.18;99787.38;5032436;28;20045;-65
2022/01/03 07:13:52;;;;;;;2.88;1.80;;;;;;;-12.10;91.46;99794.09;5032259;28;20141;-65
2022/01/03 07:19:06;;;;;;;2.40;1.90;;;;;;;-12.13;91.36;99780.63;5032459;28;20051;-71
2022/01/03 07:21:35;;;;;;;2.17;2.05;;;;;;;-12.01;91.18;99782.56;5032286;28;20052;-70
2022/01/03 07:24:03;;;;;;;5.78;2.38;;;;;;;-12.07;91.58;99790.81;5031837;28;20495;-69
2022/01/03 07:26:31;;;;;;;3.50;1.95;;;;;;;-12.19;91.94;99793.88;5031678;28;20041;-67
2022/01/03 07:28:58;;;;;;;3.20;2.42;;;;;;;-12.10;91.39;99794.09;5032086;28;20057;-66
2022/01/03 07:31:25;;;;;;;12.13;2.72;;;;;;;-12.18;91.63;99790.56;5032438;28;20049;-64
2022/01/03 07:33:52;;;;;;;2.08;1.63;;;;;;;-12.06;90.80;99792.50;5032418;28;20048;-64
2022/01/03 07:36:18;;;;;;;2.08;1.83;;;;;;;-12.06;91.40;99802.53;5031804;28;20480;-70
2022/01/03 07:38:46;;;;;;;2.53;2.22;;;;;;;-11.91;90.96;99802.84;5031874;28;20049;-66
2022/01/03 07:41:15;;;;;;;4.38;2.55;;;;;;;-12.06;91.55;99805.03;5044400;22;20045;-78
2022/01/03 07:43:43;;;;;;;1.90;1.67;;;;;;;-12.07;91.42;99804.19;5031928;28;20136;-75
2022/01/03 07:46:10;;;;;;;1.73;1.63;;;;;;;-11.90;91.44;99806.19;5032164;28;20045;-77
2022/01/03 07:48:37;;;;;;;3.65;1.33;;;;;;;-11.90;91.02;99796.16;5032055;28;20500;-76
2022/01/03 07:51:04;;;;;;;2.88;2.13;;;;;;;-12.02;91.39;99796.75;5031972;28;20411;-77
2022/01/03 07:53:31;;;;;;;10.02;2.33;;;;;;;-11.90;91.19;99794.47;5031840;28;20046;-76
2022/01/03 07:55:59;;;;;;;10.43;2.05;;;;;;;-11.90;90.97;99794.47;5031721;28;20057;-76
2022/01/03 07:58:26;;;;;;;3.60;2.38;;;;;;;-11.88;91.23;99784.50;5031965;28;20111;-76
2022/01/03 08:00:54;;;;;;;1.88;1.75;;;;;;;-11.80;91.07;99794.66;5031836;28;20050;-76
2022/01/03 08:03:22;;;;;;;2.63;1.67;;;;;;;-11.90;90.92;99789.47;5031737;28;20480;-74
2022/01/03 08:05:49;;;;;;;4.10;2.38;;;;;;;-11.92;91.29;99780.22;5031661;28;20483;-73
2022/01/03 08:08:16;;;;;;;2.72;2.38;;;;;;;-11.93;91.47;99784.38;5031757;28;20041;-76
2022/01/03 08:10:45;;;;;;;3.55;2.25;;;;;;;-11.89;91.34;99777.78;5031715;28;20056;-76
2022/01/03 08:13:20;;;;;;;3.22;2.60;;;;;;;-11.77;90.71;99784.66;5032150;28;20111;-76
2022/01/03 08:15:47;;;;;;;1.30;1.17;;;;;;;-11.78;90.92;99786.31;5031603;28;20041;-76
2022/01/03 08:18:15;;;;;;;2.78;1.40;;;;;;;-11.79;91.41;99782.13;5031731;28;20046;-77
2022/01/03 08:20:42;;;;;;;1.98;1.45;;;;;;;-11.76;90.94;99771.28;5031686;28;20053;-77
2022/01/03 08:23:09;;;;;;;4.03;1.77;;;;;;;-11.68;91.56;99770.63;5031726;28;20426;-78
2022/01/03 08:25:37;;;;;;;4.22;1.45;;;;;;;-11.70;90.75;99772.25;5031750;28;20510;-78
2022/01/03 08:28:05;;;;;;;1.83;1.40;;;;;;;-11.76;91.35;99779.69;5031779;28;20049;-77
2022/01/03 08:30:33;;;;;;;4.03;2.25;;;;;;;-11.75;91.33;99776.34;5031551;28;20052;-76
2022/01/03 08:33:00;;;;;;;2.50;1.63;;;;;;;-11.71;91.48;99768.06;5031604;28;20049;-74
2022/01/03 08:35:28;;;;;;;1.70;1.60;;;;;;;-11.67;91.48;99773.97;5031520;28;20434;-77
2022/01/03 08:37:55;;;;;;;2.53;2.05;;;;;;;-11.64;91.51;99772.38;5035355;28;20049;-77
2022/01/03 08:40:22;;;;;;;2.65;2.30;;;;;;;-11.61;90.80;99776.59;5047448;22;20057;-69
2022/01/03 08:42:51;;;;;;;2.33;1.85;;;;;;;-11.57;91.69;99772.50;5035159;28;20049;-66
2022/01/03 08:45:19;;;;;;;1.15;1.15;;;;;;;-11.51;91.32;99773.44;5034956;28;20480;-68
2022/01/03 08:47:46;;;;;;;3.45;1.90;;;;;;;-11.53;91.39;99771.72;5034792;28;20396;-69
2022/01/03 08:50:15;;;;;;;7.78;1.88;;;;;;;-11.45;91.02;99767.72;5034612;28;20389;-69
2022/01/03 08:52:43;;;;;;;5.10;1.95;;;;;;;-11.42;91.02;99773.63;5034859;28;20069;-65
2022/01/03 08:55:11;;;;;;;3.55;2.13;;;;;;;-11.50;91.56;99771.78;5034910;28;20053;-69
2022/01/03 08:57:39;;;;;;;3.58;1.85;;;;;;;-11.37;91.62;99781.22;5034632;28;20045;-65
2022/01/03 09:00:07;;;;;;;3.35;1.85;;;;;;;-11.37;91.24;99780.41;5034648;28;20045;-69
2022/01/03 09:02:34;;;;;;;2.63;2.05;;;;;;;-11.32;90.88;99779.66;5034463;28;20050;-68
2022/01/03 09:05:01;;;;;;;1.38;1.27;;;;;;;-11.27;91.87;99787.28;5034617;28;20052;-69
2022/01/03 09:07:28;;;;;;;4.50;1.77;;;;;;;-11.22;90.59;99788.19;5034602;28;20046;-69
2022/01/03 09:09:56;;;;;;;5.60;2.05;;;;;;;-11.23;91.56;99789.00;5034464;28;20050;-68
2022/01/03 09:12:23;;;;;;;4.07;2.70;;;;;;;-11.24;91.96;99787.31;5034404;28;20046;-69
2022/01/03 09:14:50;;;;;;;3.58;2.00;;;;;;;-11.10;91.16;99785.03;5034343;28;20041;-70
2022/01/03 09:17:17;;;;;;;2.03;1.83;;;;;;;-11.18;91.21;99782.38;5034110;28;20050;-69
2022/01/03 09:19:44;;;;;;;2.35;2.00;;;;;;;-11.10;91.06;99785.03;5034281;28;20042;-68
2022/01/03 09:22:15;;;;;;;1.55;1.45;;;;;;;-10.97;90.58;99781.91;5034152;28;20037;-70
2022/01/03 09:24:52;;;;;;;5.00;2.17;;;;;;;-10.96;91.03;99784.44;5033966;28;20077;-69
2022/01/03 09:30:08;;;;;;;2.33;1.63;;;;;;;-10.97;91.49;99785.28;5034159;28;20068;-68
2022/01/03 09:32:35;;;;;;;1.85;1.42;;;;;;;-10.93;91.56;99771.09;5034156;28;20043;-68
2022/01/03 09:35:03;;;;;;;2.75;2.17;;;;;;;-10.80;91.44;99775.47;5033968;28;20389;-68
2022/01/03 09:37:29;;;;;;;3.20;2.03;;;;;;;-10.84;91.41;99767.84;5033945;28;20041;-68
2022/01/03 09:39:56;;;;;;;2.72;1.90;;;;;;;-10.79;90.91;99769.66;5034248;28;20049;-69
2022/01/03 09:42:28;;;;;;;3.17;2.22;;;;;;;-10.80;90.95;99777.16;5033536;28;20057;-69
2022/01/03 09:44:58;;;;;;;1.67;1.25;;;;;;;-10.79;91.41;99759.59;5033827;28;20057;-68
2022/01/03 09:47:29;;;;;;;5.10;2.35;;;;;;;-10.68;90.63;99761.44;5033480;28;20071;-68
2022/01/03 09:49:58;;;;;;;2.45;1.80;;;;;;;-10.77;90.52;99759.59;5033611;28;20093;-67
2022/01/03 09:52:26;;;;;;;2.75;1.90;;;;;;;-10.76;91.19;99757.13;5033834;28;20562;-70
2022/01/03 09:54:57;;;;;;;4.38;2.00;;;;;;;-10.74;91.19;99769.69;5033845;28;20053;-69
2022/01/03 09:57:28;;;;;;;3.70;2.38;;;;;;;-10.74;91.12;99759.63;5034053;28;20056;-69
2022/01/03 09:59:55;;;;;;;1.65;1.55;;;;;;;-10.67;91.46;99763.94;5033365;28;19921;-69
2022/01/03 10:02:22;;;;;;;2.03;1.75;;;;;;;-10.58;91.33;99771.63;5033601;28;20049;-69
2022/01/03 10:04:49;;;;;;;4.55;1.98;;;;;;;-10.59;91.30;99764.06;5033532;28;20135;-69
2022/01/03 10:07:17;;;;;;;5.40;1.83;;;;;;;-10.50;91.27;99764.19;5033564;28;20202;-69
2022/01/03 10:09:45;;;;;;;1.70;1.60;;;;;;;-10.50;91.57;99760.84;5033746;28;20068;-69
2022/01/03 10:12:14;;;;;;;3.05;1.90;;;;;;;-10.49;91.83;99762.53;5033480;28;20049;-69
2022/01/03 10:14:43;;;;;;;4.18;2.22;;;;;;;-10.69;91.73;99755.53;5033351;28;20053;-69
2022/01/03 10:17:11;;;;;;;2.08;1.60;;;;;;;-10.52;91.41;99753.28;5033253;28;20072;-69
2022/01/03 10:19:51;;;;;;;4.68;2.47;;;;;;;-10.53;91.23;99752.44;5033103;28;20060;-69
2022/01/03 10:22:21;;;;;;;2.20;1.98;;;;;;;-10.50;91.60;99745.75;5032958;28;20053;-65
2022/01/03 10:24:48;;;;;;;2.22;2.03;;;;;;;-10.52;91.57;99749.06;5033229;28;20046;-67
2022/01/03 10:27:14;;;;;;;3.28;1.77;;;;;;;-10.57;92.27;99754.88;5033050;28;20049;-70
2022/01/03 10:29:43;;;;;;;6.25;2.03;;;;;;;-10.54;92.12;99743.19;5033284;28;20061;-67
2022/01/03 10:32:12;;;;;;;2.40;1.95;;;;;;;-10.57;91.34;99747.31;5032817;28;20045;-69
2022/01/03 10:34:39;;;;;;;2.75;1.50;;;;;;;-10.38;91.39;99743.38;5033173;28;20521;-68
2022/01/03 10:37:14;;;;;;;3.63;1.70;;;;;;;-10.40;91.28;99740.88;5033125;28;20064;-69
2022/01/03 10:39:40;;;;;;;1.92;1.17;;;;;;;-10.40;91.42;99734.97;5032643;28;20053;-69
2022/01/03 10:42:15;;;;;;;3.58;1.85;;;;;;;-10.43;91.29;99734.94;5044679;22;20140;-75
2022/01/03 10:44:44;;;;;;;2.30;1.75;;;;;;;-10.44;91.26;99739.13;5032640;28;20491;-76
2022/01/03 10:47:14;;;;;;;1.48;1.38;;;;;;;-10.50;91.29;99739.06;5032849;28;20041;-75
2022/01/03 10:49:43;;;;;;;2.85;2.50;;;;;;;-10.44;91.04;99736.59;5032691;28;20045;-75
2022/01/03 10:52:17;;;;;;;4.32;2.00;;;;;;;-10.46;91.66;99738.25;5032554;28;20361;-76
2022/01/03 10:54:46;;;;;;;3.35;1.50;;;;;;;-10.45;91.20;99729.91;5032644;28;20044;-76
2022/01/03 10:57:14;;;;;;;1.65;1.50;;;;;;;-10.49;91.17;99735.69;5032301;28;20052;-75
2022/01/03 10:59:43;;;;;;;3.60;2.42;;;;;;;-10.57;91.50;99742.28;5032146;28;20053;-76
2022/01/03 11:02:12;;;;;;;2.10;1.90;;;;;;;-10.52;91.42;99744.03;5032207;28;20053;-75
2022/01/03 11:04:50;;;;;;;5.68;1.88;;;;;;;-10.49;90.77;99752.47;5032343;28;20140;-74
2022/01/03 11:13:11;;;;;;;2.10;1.77;;;;;;;-10.51;90.79;99742.38;5032223;28;20779;-76
2022/01/03 11:15:42;;;;;;;5.93;2.08;;;;;;;-10.41;90.94;99745.88;5032328;28;20084;-76
2022/01/03 11:18:10;;;;;;;2.28;2.15;;;;;;;-10.40;91.20;99733.31;5032207;28;20049;-76
2022/01/03 11:20:37;;;;;;;2.13;1.83;;;;;;;-10.52;91.76;99755.78;5032273;28;20057;-77
2022/01/03 11:23:04;;;;;;;2.40;2.03;;;;;;;-10.42;91.49;99740.00;5032053;28;20057;-77
2022/01/03 11:25:33;;;;;;;4.05;1.75;;;;;;;-10.40;91.25;99745.91;5032353;28;20049;-76
2022/01/03 11:28:01;;;;;;;1.80;1.65;;;;;;;-10.41;91.17;99739.16;5032314;28;20065;-77
2022/01/03 11:30:29;;;;;;;4.97;2.35;;;;;;;-10.50;92.25;99734.03;5031882;28;20052;-77
2022/01/03 11:33:00;;;;;;;4.13;2.50;;;;;;;-10.59;92.25;99729.69;5032199;28;20042;-77
2022/01/03 11:35:27;;;;;;;3.92;2.17;;;;;;;-10.45;91.87;99736.56;5032230;28;20085;-77
2022/01/03 11:37:59;;;;;;;3.28;2.03;;;;;;;-10.41;92.05;99725.75;5031948;28;20402;-77
2022/01/03 11:40:26;;;;;;;5.15;2.05;;;;;;;-10.51;92.17;99729.81;5044099;22;20029;-69
2022/01/03 11:42:54;;;;;;;3.47;2.30;;;;;;;-10.56;92.87;99733.91;5032102;28;20435;-69
2022/01/03 11:45:21;;;;;;;3.60;2.45;;;;;;;-10.42;91.74;99732.44;5032189;28;20501;-69
2022/01/03 11:47:49;;;;;;;2.72;1.98;;;;;;;-10.34;91.28;99730.88;5032268;28;20046;-69
2022/01/03 11:50:17;;;;;;;3.40;1.80;;;;;;;-10.39;91.83;99731.66;5031810;28;20053;-69